sensor_id;sensor_type;location;lat;lon;timestamp;P1;durP1;ratioP1;P2;durP2;ratioP2
23146;SDS011;11742;53.532;-1.478;2022-12-18T00:00:39;4.70;;;3.10;;
23146;SDS011;11742;53.532;-1.478;2022-12-18T00:03:05;6.18;;;3.30;;
23146;SDS011;11742;53.532;-1.478;2022-12-18T00:05:31;7.10;;;3.20;;
23146;SDS011;11742;53.532;-1.478;2022-12-18T00:07:57;5.63;;;2.80;;
23146;SDS011;11742;53.532;-1.478;2022-12-18T00:10:22;4.75;;;3.00;;
23146;SDS011;11742;53.532;-1.478;2022-12-18T00:12:48;5.43;;;2.63;;
23146;SDS011;11742;53.532;-1.478;2022-12-18T00:15:14;5.38;;;3.00;;
23146;SDS011;11742;53.532;-1.478;2022-12-18T00:17:39;5.18;;;2.72;;
23146;SDS011;11742;53.532;-1.478;2022-12-18T00:20:05;3.40;;;2.42;;
23146;SDS011;11742;53.532;-1.478;2022-12-18T00:22:31;4.72;;;2.70;;
23146;SDS011;11742;53.532;-1.478;2022-12-18T00:24:57;3.75;;;2.70;;
23146;SDS011;11742;53.532;-1.478;2022-12-18T00:27:22;4.10;;;2.47;;
23146;SDS011;11742;53.532;-1.478;2022-12-18T00:29:48;6.22;;;2.75;;
23146;SDS011;11742;53.532;-1.478;2022-12-18T00:32:14;4.68;;;2.88;;
23146;SDS011;11742;53.532;-1.478;2022-12-18T00:34:39;6.78;;;3.03;;
23146;SDS011;11742;53.532;-1.478;2022-12-18T00:37:05;4.28;;;2.78;;
23146;SDS011;11742;53.532;-1.478;2022-12-18T00:39:31;4.95;;;2.55;;
23146;SDS011;11742;53.532;-1.478;2022-12-18T00:41:56;5.03;;;2.88;;
23146;SDS011;11742;53.532;-1.478;2022-12-18T00:44:41;5.88;;;2.88;;
23146;SDS011;11742;53.532;-1.478;2022-12-18T00:47:07;5.50;;;2.70;;
23146;SDS011;11742;53.532;-1.478;2022-12-18T00:49:32;5.32;;;3.00;;
23146;SDS011;11742;53.532;-1.478;2022-12-18T00:51:58;5.18;;;2.35;;
23146;SDS011;11742;53.532;-1.478;2022-12-18T00:54:23;5.65;;;3.03;;
23146;SDS011;11742;53.532;-1.478;2022-12-18T00:56:49;5.95;;;2.83;;
23146;SDS011;11742;53.532;-1.478;2022-12-18T00:59:16;3.95;;;2.50;;
23146;SDS011;11742;53.532;-1.478;2022-12-18T01:01:42;5.07;;;3.13;;
23146;SDS011;11742;53.532;-1.478;2022-12-18T01:04:08;6.55;;;3.10;;
23146;SDS011;11742;53.532;-1.478;2022-12-18T01:06:34;3.83;;;2.50;;
23146;SDS011;11742;53.532;-1.478;2022-12-18T01:08:59;3.90;;;2.47;;
23146;SDS011;11742;53.532;-1.478;2022-12-18T01:11:25;4.15;;;2.63;;
23146;SDS011;11742;53.532;-1.478;2022-12-18T01:13:52;4.28;;;2.50;;
23146;SDS011;11742;53.532;-1.478;2022-12-18T01:16:18;6.35;;;2.83;;
23146;SDS011;11742;53.532;-1.478;2022-12-18T01:18:44;6.15;;;3.17;;
23146;SDS011;11742;53.532;-1.478;2022-12-18T01:21:11;4.40;;;2.50;;
23146;SDS011;11742;53.532;-1.478;2022-12-18T01:23:39;4.35;;;2.53;;
23146;SDS011;11742;53.532;-1.478;2022-12-18T01:26:08;5.47;;;2.83;;
23146;SDS011;11742;53.532;-1.478;2022-12-18T01:28:39;4.57;;;2.63;;
23146;SDS011;11742;53.532;-1.478;2022-12-18T01:31:11;4.80;;;2.60;;
23146;SDS011;11742;53.532;-1.478;2022-12-18T01:33:48;5.47;;;2.75;;
23146;SDS011;11742;53.532;-1.478;2022-12-18T01:36:15;5.65;;;2.80;;
23146;SDS011;11742;53.532;-1.478;2022-12-18T01:38:43;3.15;;;2.50;;
23146;SDS011;11742;53.532;-1.478;2022-12-18T01:41:10;6.07;;;2.72;;
23146;SDS011;11742;53.532;-1.478;2022-12-18T01:44:46;7.22;;;2.55;;
23146;SDS011;11742;53.532;-1.478;2022-12-18T01:49:16;3.95;;;2.70;;
23146;SDS011;11742;53.532;-1.478;2022-12-18T01:51:42;5.50;;;2.92;;
23146;SDS011;11742;53.532;-1.478;2022-12-18T01:54:07;3.78;;;2.30;;
23146;SDS011;11742;53.532;-1.478;2022-12-18T01:56:33;4.68;;;2.60;;
23146;SDS011;11742;53.532;-1.478;2022-12-18T01:59:03;6.05;;;2.80;;
23146;SDS011;11742;53.532;-1.478;2022-12-18T02:01:31;5.93;;;2.80;;
23146;SDS011;11742;53.532;-1.478;2022-12-18T02:04:16;3.35;;;2.38;;
23146;SDS011;11742;53.532;-1.478;2022-12-18T02:06:46;3.55;;;2.65;;
23146;SDS011;11742;53.532;-1.478;2022-12-18T02:09:33;4.38;;;2.90;;
23146;SDS011;11742;53.532;-1.478;2022-12-18T02:12:19;5.45;;;3.15;;
23146;SDS011;11742;53.532;-1.478;2022-12-18T02:15:02;5.93;;;3.10;;
23146;SDS011;11742;53.532;-1.478;2022-12-18T02:18:26;3.90;;;2.93;;
23146;SDS011;11742;53.532;-1.478;2022-12-18T02:20:49;6.35;;;3.08;;
23146;SDS011;11742;53.532;-1.478;2022-12-18T02:23:33;6.28;;;3.30;;
23146;SDS011;11742;53.532;-1.478;2022-12-18T02:26:16;4.00;;;2.63;;
23146;SDS011;11742;53.532;-1.478;2022-12-18T02:28:49;7.78;;;2.83;;
23146;SDS011;11742;53.532;-1.478;2022-12-18T02:31:21;7.53;;;3.08;;
23146;SDS011;11742;53.532;-1.478;2022-12-18T02:33:50;8.80;;;3.17;;
23146;SDS011;11742;53.532;-1.478;2022-12-18T02:36:18;5.68;;;3.05;;
23146;SDS011;11742;53.532;-1.478;2022-12-18T02:38:46;4.50;;;2.92;;
23146;SDS011;11742;53.532;-1.478;2022-12-18T02:41:13;4.65;;;2.83;;
23146;SDS011;11742;53.532;-1.478;2022-12-18T02:43:45;5.93;;;3.00;;
23146;SDS011;11742;53.532;-1.478;2022-12-18T02:48:57;3.80;;;2.60;;
23146;SDS011;11742;53.532;-1.478;2022-12-18T02:51:52;6.45;;;3.13;;
23146;SDS011;11742;53.532;-1.478;2022-12-18T02:56:59;3.08;;;2.47;;
23146;SDS011;11742;53.532;-1.478;2022-12-18T02:59:38;4.47;;;2.75;;
23146;SDS011;11742;53.532;-1.478;2022-12-18T03:02:24;5.32;;;2.45;;
23146;SDS011;11742;53.532;-1.478;2022-12-18T03:05:03;5.45;;;2.78;;
23146;SDS011;11742;53.532;-1.478;2022-12-18T03:07:38;4.53;;;2.50;;
23146;SDS011;11742;53.532;-1.478;2022-12-18T03:10:16;5.15;;;2.75;;
23146;SDS011;11742;53.532;-1.478;2022-12-18T03:12:47;3.92;;;2.72;;
23146;SDS011;11742;53.532;-1.478;2022-12-18T03:15:26;6.40;;;3.08;;
23146;SDS011;11742;53.532;-1.478;2022-12-18T03:18:03;3.83;;;2.53;;
23146;SDS011;11742;53.532;-1.478;2022-12-18T03:20:34;5.15;;;3.30;;
23146;SDS011;11742;53.532;-1.478;2022-12-18T03:23:09;5.72;;;3.10;;
23146;SDS011;11742;53.532;-1.478;2022-12-18T03:25:39;5.25;;;3.00;;
23146;SDS011;11742;53.532;-1.478;2022-12-18T03:28:08;7.60;;;3.47;;
23146;SDS011;11742;53.532;-1.478;2022-12-18T03:30:39;6.28;;;2.92;;
23146;SDS011;11742;53.532;-1.478;2022-12-18T03:36:27;9.00;;;3.33;;
23146;SDS011;11742;53.532;-1.478;2022-12-18T03:38:53;4.63;;;2.92;;
23146;SDS011;11742;53.532;-1.478;2022-12-18T03:49:33;7.10;;;3.97;;
23146;SDS011;11742;53.532;-1.478;2022-12-18T03:52:04;7.38;;;4.07;;
23146;SDS011;11742;53.532;-1.478;2022-12-18T03:54:35;7.13;;;3.42;;
23146;SDS011;11742;53.532;-1.478;2022-12-18T03:57:08;8.45;;;4.40;;
23146;SDS011;11742;53.532;-1.478;2022-12-18T03:59:38;7.35;;;4.72;;
23146;SDS011;11742;53.532;-1.478;2022-12-18T04:02:05;6.65;;;3.80;;
23146;SDS011;11742;53.532;-1.478;2022-12-18T04:04:33;8.30;;;4.28;;
23146;SDS011;11742;53.532;-1.478;2022-12-18T04:07:02;7.22;;;3.72;;
23146;SDS011;11742;53.532;-1.478;2022-12-18T04:09:29;8.52;;;4.20;;
23146;SDS011;11742;53.532;-1.478;2022-12-18T04:11:56;6.45;;;4.05;;
23146;SDS011;11742;53.532;-1.478;2022-12-18T04:14:22;8.13;;;4.22;;
23146;SDS011;11742;53.532;-1.478;2022-12-18T04:16:48;7.88;;;4.28;;
23146;SDS011;11742;53.532;-1.478;2022-12-18T04:19:13;7.45;;;4.15;;
23146;SDS011;11742;53.532;-1.478;2022-12-18T04:21:39;9.35;;;4.38;;
23146;SDS011;11742;53.532;-1.478;2022-12-18T04:24:05;7.10;;;4.03;;
23146;SDS011;11742;53.532;-1.478;2022-12-18T04:26:30;4.68;;;3.58;;
23146;SDS011;11742;53.532;-1.478;2022-12-18T04:28:56;7.28;;;4.25;;
23146;SDS011;11742;53.532;-1.478;2022-12-18T04:31:22;8.95;;;4.05;;
23146;SDS011;11742;53.532;-1.478;2022-12-18T04:33:47;8.70;;;4.30;;
23146;SDS011;11742;53.532;-1.478;2022-12-18T04:36:13;7.35;;;4.50;;
23146;SDS011;11742;53.532;-1.478;2022-12-18T04:38:39;8.43;;;3.80;;
23146;SDS011;11742;53.532;-1.478;2022-12-18T04:41:04;7.55;;;3.85;;
23146;SDS011;11742;53.532;-1.478;2022-12-18T04:43:30;9.90;;;4.82;;
23146;SDS011;11742;53.532;-1.478;2022-12-18T04:46:04;6.97;;;4.47;;
23146;SDS011;11742;53.532;-1.478;2022-12-18T04:48:31;9.73;;;4.88;;
23146;SDS011;11742;53.532;-1.478;2022-12-18T04:50:58;7.70;;;4.32;;
23146;SDS011;11742;53.532;-1.478;2022-12-18T04:53:24;7.75;;;4.15;;
23146;SDS011;11742;53.532;-1.478;2022-12-18T04:55:49;7.47;;;4.15;;
23146;SDS011;11742;53.532;-1.478;2022-12-18T04:58:15;8.63;;;4.93;;
23146;SDS011;11742;53.532;-1.478;2022-12-18T05:00:41;9.85;;;5.10;;
23146;SDS011;11742;53.532;-1.478;2022-12-18T05:03:06;8.65;;;4.90;;
23146;SDS011;11742;53.532;-1.478;2022-12-18T05:05:34;11.07;;;5.30;;
23146;SDS011;11742;53.532;-1.478;2022-12-18T05:08:00;9.07;;;4.80;;
23146;SDS011;11742;53.532;-1.478;2022-12-18T05:10:26;8.85;;;5.10;;
23146;SDS011;11742;53.532;-1.478;2022-12-18T05:12:52;9.77;;;4.68;;
23146;SDS011;11742;53.532;-1.478;2022-12-18T05:15:27;8.15;;;4.80;;
23146;SDS011;11742;53.532;-1.478;2022-12-18T05:17:57;8.50;;;5.15;;
23146;SDS011;11742;53.532;-1.478;2022-12-18T05:20:23;10.77;;;5.40;;
23146;SDS011;11742;53.532;-1.478;2022-12-18T05:22:50;11.75;;;5.43;;
23146;SDS011;11742;53.532;-1.478;2022-12-18T05:25:16;9.93;;;5.15;;
23146;SDS011;11742;53.532;-1.478;2022-12-18T05:27:42;9.95;;;5.43;;
23146;SDS011;11742;53.532;-1.478;2022-12-18T05:30:08;9.07;;;5.07;;
23146;SDS011;11742;53.532;-1.478;2022-12-18T05:32:35;8.18;;;5.13;;
23146;SDS011;11742;53.532;-1.478;2022-12-18T05:35:00;9.20;;;4.90;;
23146;SDS011;11742;53.532;-1.478;2022-12-18T05:37:26;11.80;;;5.55;;
23146;SDS011;11742;53.532;-1.478;2022-12-18T05:39:52;8.35;;;5.13;;
23146;SDS011;11742;53.532;-1.478;2022-12-18T05:42:17;8.98;;;5.65;;
23146;SDS011;11742;53.532;-1.478;2022-12-18T05:44:43;12.65;;;6.50;;
23146;SDS011;11742;53.532;-1.478;2022-12-18T05:47:09;10.73;;;6.05;;
23146;SDS011;11742;53.532;-1.478;2022-12-18T05:49:35;10.35;;;5.82;;
23146;SDS011;11742;53.532;-1.478;2022-12-18T05:52:00;13.15;;;6.55;;
23146;SDS011;11742;53.532;-1.478;2022-12-18T05:54:27;12.98;;;5.90;;
23146;SDS011;11742;53.532;-1.478;2022-12-18T05:56:53;9.95;;;5.90;;
23146;SDS011;11742;53.532;-1.478;2022-12-18T05:59:19;12.38;;;5.78;;
23146;SDS011;11742;53.532;-1.478;2022-12-18T06:01:44;11.48;;;5.93;;
23146;SDS011;11742;53.532;-1.478;2022-12-18T06:04:11;10.18;;;6.15;;
23146;SDS011;11742;53.532;-1.478;2022-12-18T06:06:36;11.77;;;6.35;;
23146;SDS011;11742;53.532;-1.478;2022-12-18T06:09:03;12.93;;;6.55;;
23146;SDS011;11742;53.532;-1.478;2022-12-18T06:11:33;11.93;;;6.25;;
23146;SDS011;11742;53.532;-1.478;2022-12-18T06:13:59;11.02;;;6.05;;
23146;SDS011;11742;53.532;-1.478;2022-12-18T06:16:29;12.65;;;6.47;;
23146;SDS011;11742;53.532;-1.478;2022-12-18T06:18:56;13.32;;;6.10;;
23146;SDS011;11742;53.532;-1.478;2022-12-18T06:21:26;14.95;;;6.85;;
23146;SDS011;11742;53.532;-1.478;2022-12-18T06:23:53;12.93;;;7.10;;
23146;SDS011;11742;53.532;-1.478;2022-12-18T06:26:18;14.77;;;7.00;;
23146;SDS011;11742;53.532;-1.478;2022-12-18T06:28:44;14.10;;;7.05;;
23146;SDS011;11742;53.532;-1.478;2022-12-18T06:31:10;12.52;;;7.20;;
23146;SDS011;11742;53.532;-1.478;2022-12-18T06:33:36;13.60;;;6.90;;
23146;SDS011;11742;53.532;-1.478;2022-12-18T06:38:29;14.88;;;6.95;;
23146;SDS011;11742;53.532;-1.478;2022-12-18T06:40:55;14.23;;;7.82;;
23146;SDS011;11742;53.532;-1.478;2022-12-18T06:43:21;15.18;;;7.50;;
23146;SDS011;11742;53.532;-1.478;2022-12-18T06:45:47;14.57;;;7.40;;
23146;SDS011;11742;53.532;-1.478;2022-12-18T06:48:17;13.98;;;7.25;;
23146;SDS011;11742;53.532;-1.478;2022-12-18T06:50:46;15.18;;;7.15;;
23146;SDS011;11742;53.532;-1.478;2022-12-18T06:53:12;16.38;;;8.35;;
23146;SDS011;11742;53.532;-1.478;2022-12-18T06:55:38;15.38;;;7.93;;
23146;SDS011;11742;53.532;-1.478;2022-12-18T06:58:03;16.52;;;8.07;;
23146;SDS011;11742;53.532;-1.478;2022-12-18T07:00:29;17.95;;;8.98;;
23146;SDS011;11742;53.532;-1.478;2022-12-18T07:02:55;18.23;;;8.27;;
23146;SDS011;11742;53.532;-1.478;2022-12-18T07:05:20;16.40;;;8.05;;
23146;SDS011;11742;53.532;-1.478;2022-12-18T07:07:46;17.73;;;8.88;;
23146;SDS011;11742;53.532;-1.478;2022-12-18T07:10:11;15.23;;;7.88;;
23146;SDS011;11742;53.532;-1.478;2022-12-18T07:12:37;15.77;;;9.20;;
23146;SDS011;11742;53.532;-1.478;2022-12-18T07:15:03;18.98;;;10.07;;
23146;SDS011;11742;53.532;-1.478;2022-12-18T07:17:29;21.08;;;10.52;;
23146;SDS011;11742;53.532;-1.478;2022-12-18T07:19:55;19.95;;;9.80;;
23146;SDS011;11742;53.532;-1.478;2022-12-18T07:22:20;23.23;;;10.30;;
23146;SDS011;11742;53.532;-1.478;2022-12-18T07:24:46;20.73;;;10.75;;
23146;SDS011;11742;53.532;-1.478;2022-12-18T07:27:12;20.75;;;10.45;;
23146;SDS011;11742;53.532;-1.478;2022-12-18T07:29:37;19.55;;;10.15;;
23146;SDS011;11742;53.532;-1.478;2022-12-18T07:32:03;23.17;;;12.00;;
23146;SDS011;11742;53.532;-1.478;2022-12-18T07:34:29;21.63;;;11.75;;
23146;SDS011;11742;53.532;-1.478;2022-12-18T07:36:54;32.65;;;12.50;;
23146;SDS011;11742;53.532;-1.478;2022-12-18T07:39:20;21.05;;;11.70;;
23146;SDS011;11742;53.532;-1.478;2022-12-18T07:41:46;25.60;;;11.57;;
23146;SDS011;11742;53.532;-1.478;2022-12-18T07:44:31;24.75;;;12.07;;
23146;SDS011;11742;53.532;-1.478;2022-12-18T07:46:57;25.63;;;12.30;;
23146;SDS011;11742;53.532;-1.478;2022-12-18T07:49:22;24.98;;;12.35;;
23146;SDS011;11742;53.532;-1.478;2022-12-18T07:51:48;23.85;;;12.50;;
23146;SDS011;11742;53.532;-1.478;2022-12-18T07:54:14;24.10;;;12.80;;
23146;SDS011;11742;53.532;-1.478;2022-12-18T07:56:40;26.17;;;13.00;;
23146;SDS011;11742;53.532;-1.478;2022-12-18T07:59:05;28.05;;;13.25;;
23146;SDS011;11742;53.532;-1.478;2022-12-18T08:01:31;27.05;;;13.35;;
23146;SDS011;11742;53.532;-1.478;2022-12-18T08:03:57;27.98;;;13.60;;
23146;SDS011;11742;53.532;-1.478;2022-12-18T08:06:23;28.00;;;13.80;;
23146;SDS011;11742;53.532;-1.478;2022-12-18T08:08:50;23.90;;;12.00;;
23146;SDS011;11742;53.532;-1.478;2022-12-18T08:11:17;30.13;;;13.48;;
23146;SDS011;11742;53.532;-1.478;2022-12-18T08:13:43;27.48;;;13.57;;
23146;SDS011;11742;53.532;-1.478;2022-12-18T08:16:08;28.48;;;13.88;;
23146;SDS011;11742;53.532;-1.478;2022-12-18T08:18:35;29.65;;;13.25;;
23146;SDS011;11742;53.532;-1.478;2022-12-18T08:21:15;24.90;;;12.70;;
23146;SDS011;11742;53.532;-1.478;2022-12-18T08:23:43;26.23;;;13.07;;
23146;SDS011;11742;53.532;-1.478;2022-12-18T08:26:09;30.35;;;14.50;;
23146;SDS011;11742;53.532;-1.478;2022-12-18T08:28:36;27.70;;;12.50;;
23146;SDS011;11742;53.532;-1.478;2022-12-18T08:31:01;28.35;;;12.77;;
23146;SDS011;11742;53.532;-1.478;2022-12-18T08:33:27;28.83;;;14.35;;
23146;SDS011;11742;53.532;-1.478;2022-12-18T08:35:53;26.63;;;13.18;;
23146;SDS011;11742;53.532;-1.478;2022-12-18T08:38:18;23.80;;;12.82;;
23146;SDS011;11742;53.532;-1.478;2022-12-18T08:40:44;25.30;;;12.20;;
23146;SDS011;11742;53.532;-1.478;2022-12-18T08:43:10;25.20;;;12.90;;
23146;SDS011;11742;53.532;-1.478;2022-12-18T08:46:11;28.67;;;13.68;;
23146;SDS011;11742;53.532;-1.478;2022-12-18T08:48:37;29.85;;;13.65;;
23146;SDS011;11742;53.532;-1.478;2022-12-18T08:51:03;27.75;;;12.40;;
23146;SDS011;11742;53.532;-1.478;2022-12-18T08:53:29;26.75;;;12.70;;
23146;SDS011;11742;53.532;-1.478;2022-12-18T08:55:55;28.05;;;13.07;;
23146;SDS011;11742;53.532;-1.478;2022-12-18T08:58:21;25.40;;;12.80;;
23146;SDS011;11742;53.532;-1.478;2022-12-18T09:00:47;26.17;;;13.48;;
23146;SDS011;11742;53.532;-1.478;2022-12-18T09:03:13;25.00;;;12.30;;
23146;SDS011;11742;53.532;-1.478;2022-12-18T09:05:40;27.55;;;12.60;;
23146;SDS011;11742;53.532;-1.478;2022-12-18T09:08:06;25.65;;;12.68;;
23146;SDS011;11742;53.532;-1.478;2022-12-18T09:10:32;28.45;;;13.80;;
23146;SDS011;11742;53.532;-1.478;2022-12-18T09:12:58;28.52;;;12.98;;
23146;SDS011;11742;53.532;-1.478;2022-12-18T09:15:24;27.13;;;12.93;;
23146;SDS011;11742;53.532;-1.478;2022-12-18T09:17:50;28.65;;;13.20;;
23146;SDS011;11742;53.532;-1.478;2022-12-18T09:20:17;29.52;;;13.23;;
23146;SDS011;11742;53.532;-1.478;2022-12-18T09:22:44;26.52;;;13.25;;
23146;SDS011;11742;53.532;-1.478;2022-12-18T09:25:09;30.63;;;13.80;;
23146;SDS011;11742;53.532;-1.478;2022-12-18T09:27:35;27.10;;;13.10;;
23146;SDS011;11742;53.532;-1.478;2022-12-18T09:30:01;29.55;;;13.50;;
23146;SDS011;11742;53.532;-1.478;2022-12-18T09:32:27;27.10;;;13.43;;
23146;SDS011;11742;53.532;-1.478;2022-12-18T09:34:52;32.60;;;13.93;;
23146;SDS011;11742;53.532;-1.478;2022-12-18T09:37:18;26.42;;;12.68;;
23146;SDS011;11742;53.532;-1.478;2022-12-18T09:39:43;29.17;;;13.55;;
23146;SDS011;11742;53.532;-1.478;2022-12-18T09:42:15;31.55;;;13.95;;
23146;SDS011;11742;53.532;-1.478;2022-12-18T09:44:49;26.85;;;13.50;;
23146;SDS011;11742;53.532;-1.478;2022-12-18T09:50:04;26.88;;;13.02;;
23146;SDS011;11742;53.532;-1.478;2022-12-18T09:52:43;27.55;;;12.90;;
23146;SDS011;11742;53.532;-1.478;2022-12-18T09:57:51;31.17;;;13.07;;
23146;SDS011;11742;53.532;-1.478;2022-12-18T10:00:22;28.85;;;12.90;;
23146;SDS011;11742;53.532;-1.478;2022-12-18T10:02:50;31.55;;;13.20;;
23146;SDS011;11742;53.532;-1.478;2022-12-18T10:08:34;29.00;;;12.45;;
23146;SDS011;11742;53.532;-1.478;2022-12-18T10:19:43;28.40;;;12.88;;
23146;SDS011;11742;53.532;-1.478;2022-12-18T10:22:51;27.50;;;12.82;;
23146;SDS011;11742;53.532;-1.478;2022-12-18T10:25:31;25.95;;;12.57;;
23146;SDS011;11742;53.532;-1.478;2022-12-18T10:28:07;24.13;;;11.63;;
23146;SDS011;11742;53.532;-1.478;2022-12-18T10:30:38;26.10;;;12.18;;
23146;SDS011;11742;53.532;-1.478;2022-12-18T10:33:04;23.55;;;11.50;;
23146;SDS011;11742;53.532;-1.478;2022-12-18T10:35:31;22.92;;;10.82;;
23146;SDS011;11742;53.532;-1.478;2022-12-18T10:43:31;24.33;;;11.30;;
23146;SDS011;11742;53.532;-1.478;2022-12-18T10:45:59;24.17;;;10.82;;
23146;SDS011;11742;53.532;-1.478;2022-12-18T10:53:51;23.80;;;11.63;;
23146;SDS011;11742;53.532;-1.478;2022-12-18T10:56:20;26.02;;;11.85;;
23146;SDS011;11742;53.532;-1.478;2022-12-18T10:58:55;23.92;;;11.45;;
23146;SDS011;11742;53.532;-1.478;2022-12-18T11:01:22;23.83;;;11.32;;
23146;SDS011;11742;53.532;-1.478;2022-12-18T11:06:25;21.95;;;10.18;;
23146;SDS011;11742;53.532;-1.478;2022-12-18T11:09:19;25.05;;;11.13;;
23146;SDS011;11742;53.532;-1.478;2022-12-18T11:11:52;27.13;;;11.65;;
23146;SDS011;11742;53.532;-1.478;2022-12-18T11:16:57;23.48;;;10.73;;
23146;SDS011;11742;53.532;-1.478;2022-12-18T11:19:31;23.25;;;11.40;;
23146;SDS011;11742;53.532;-1.478;2022-12-18T11:22:03;25.15;;;11.30;;
23146;SDS011;11742;53.532;-1.478;2022-12-18T11:24:51;23.17;;;11.05;;
23146;SDS011;11742;53.532;-1.478;2022-12-18T11:27:36;23.15;;;10.55;;
23146;SDS011;11742;53.532;-1.478;2022-12-18T11:30:07;26.80;;;11.88;;
23146;SDS011;11742;53.532;-1.478;2022-12-18T11:32:54;21.42;;;10.10;;
23146;SDS011;11742;53.532;-1.478;2022-12-18T11:38:00;23.65;;;11.15;;
23146;SDS011;11742;53.532;-1.478;2022-12-18T11:40:33;21.63;;;11.02;;
23146;SDS011;11742;53.532;-1.478;2022-12-18T11:45:54;25.40;;;11.23;;
23146;SDS011;11742;53.532;-1.478;2022-12-18T11:48:28;26.48;;;11.85;;
23146;SDS011;11742;53.532;-1.478;2022-12-18T11:53:25;23.08;;;10.55;;
23146;SDS011;11742;53.532;-1.478;2022-12-18T11:58:52;24.40;;;10.90;;
23146;SDS011;11742;53.532;-1.478;2022-12-18T12:01:48;24.88;;;11.40;;
23146;SDS011;11742;53.532;-1.478;2022-12-18T12:07:23;22.77;;;11.27;;
23146;SDS011;11742;53.532;-1.478;2022-12-18T12:10:29;24.70;;;11.23;;
23146;SDS011;11742;53.532;-1.478;2022-12-18T12:14:05;21.30;;;10.48;;
23146;SDS011;11742;53.532;-1.478;2022-12-18T12:16:33;23.92;;;10.52;;
23146;SDS011;11742;53.532;-1.478;2022-12-18T12:25:02;19.20;;;9.55;;
23146;SDS011;11742;53.532;-1.478;2022-12-18T12:28:05;20.15;;;9.57;;
23146;SDS011;11742;53.532;-1.478;2022-12-18T12:33:28;19.67;;;10.43;;
23146;SDS011;11742;53.532;-1.478;2022-12-18T12:39:09;22.45;;;10.65;;
23146;SDS011;11742;53.532;-1.478;2022-12-18T12:41:38;20.13;;;10.40;;
23146;SDS011;11742;53.532;-1.478;2022-12-18T12:44:28;18.80;;;9.23;;
23146;SDS011;11742;53.532;-1.478;2022-12-18T12:47:35;19.70;;;9.82;;
23146;SDS011;11742;53.532;-1.478;2022-12-18T12:50:12;19.48;;;9.85;;
23146;SDS011;11742;53.532;-1.478;2022-12-18T12:55:12;19.58;;;8.85;;
23146;SDS011;11742;53.532;-1.478;2022-12-18T13:00:20;18.23;;;9.52;;
23146;SDS011;11742;53.532;-1.478;2022-12-18T13:02:49;18.80;;;8.82;;
23146;SDS011;11742;53.532;-1.478;2022-12-18T13:05:34;19.40;;;9.95;;
23146;SDS011;11742;53.532;-1.478;2022-12-18T13:08:28;17.63;;;8.45;;
23146;SDS011;11742;53.532;-1.478;2022-12-18T13:10:56;19.27;;;9.00;;
23146;SDS011;11742;53.532;-1.478;2022-12-18T13:13:48;20.95;;;9.68;;
23146;SDS011;11742;53.532;-1.478;2022-12-18T13:16:19;17.77;;;9.15;;
23146;SDS011;11742;53.532;-1.478;2022-12-18T13:18:50;17.88;;;9.38;;
23146;SDS011;11742;53.532;-1.478;2022-12-18T13:21:21;18.92;;;10.13;;
23146;SDS011;11742;53.532;-1.478;2022-12-18T13:23:55;18.13;;;8.88;;
23146;SDS011;11742;53.532;-1.478;2022-12-18T13:34:18;20.23;;;8.85;;
23146;SDS011;11742;53.532;-1.478;2022-12-18T13:36:46;19.23;;;8.82;;
23146;SDS011;11742;53.532;-1.478;2022-12-18T13:41:53;20.75;;;8.68;;
23146;SDS011;11742;53.532;-1.478;2022-12-18T13:44:57;16.77;;;9.05;;
23146;SDS011;11742;53.532;-1.478;2022-12-18T13:47:33;20.45;;;9.93;;
23146;SDS011;11742;53.532;-1.478;2022-12-18T13:50:23;18.13;;;9.70;;
23146;SDS011;11742;53.532;-1.478;2022-12-18T13:52:49;19.95;;;9.27;;
23146;SDS011;11742;53.532;-1.478;2022-12-18T13:55:17;18.70;;;9.13;;
23146;SDS011;11742;53.532;-1.478;2022-12-18T13:57:44;17.42;;;9.75;;
23146;SDS011;11742;53.532;-1.478;2022-12-18T14:00:24;16.65;;;8.45;;
23146;SDS011;11742;53.532;-1.478;2022-12-18T14:02:53;18.45;;;9.35;;
23146;SDS011;11742;53.532;-1.478;2022-12-18T14:05:32;19.25;;;9.07;;
23146;SDS011;11742;53.532;-1.478;2022-12-18T14:08:01;18.83;;;9.30;;
23146;SDS011;11742;53.532;-1.478;2022-12-18T14:10:35;21.45;;;9.63;;
23146;SDS011;11742;53.532;-1.478;2022-12-18T14:13:09;20.23;;;9.48;;
23146;SDS011;11742;53.532;-1.478;2022-12-18T14:15:41;19.38;;;9.40;;
23146;SDS011;11742;53.532;-1.478;2022-12-18T14:20:41;16.88;;;8.48;;
23146;SDS011;11742;53.532;-1.478;2022-12-18T14:23:29;19.23;;;9.30;;
23146;SDS011;11742;53.532;-1.478;2022-12-18T14:28:58;17.80;;;8.88;;
23146;SDS011;11742;53.532;-1.478;2022-12-18T14:31:27;17.38;;;8.65;;
23146;SDS011;11742;53.532;-1.478;2022-12-18T14:33:54;17.67;;;8.98;;
23146;SDS011;11742;53.532;-1.478;2022-12-18T14:36:22;17.77;;;8.85;;
23146;SDS011;11742;53.532;-1.478;2022-12-18T14:38:56;18.83;;;9.05;;
23146;SDS011;11742;53.532;-1.478;2022-12-18T14:41:23;14.68;;;7.75;;
23146;SDS011;11742;53.532;-1.478;2022-12-18T14:43:51;18.30;;;8.63;;
23146;SDS011;11742;53.532;-1.478;2022-12-18T14:49:02;18.33;;;8.68;;
23146;SDS011;11742;53.532;-1.478;2022-12-18T14:51:30;16.13;;;8.40;;
23146;SDS011;11742;53.532;-1.478;2022-12-18T14:53:59;18.88;;;8.73;;
23146;SDS011;11742;53.532;-1.478;2022-12-18T14:56:32;18.58;;;9.30;;
23146;SDS011;11742;53.532;-1.478;2022-12-18T14:59:00;16.63;;;8.43;;
23146;SDS011;11742;53.532;-1.478;2022-12-18T15:07:05;17.67;;;8.55;;
23146;SDS011;11742;53.532;-1.478;2022-12-18T15:09:38;21.38;;;8.57;;
23146;SDS011;11742;53.532;-1.478;2022-12-18T15:12:15;19.33;;;8.77;;
23146;SDS011;11742;53.532;-1.478;2022-12-18T15:14:47;19.30;;;8.73;;
23146;SDS011;11742;53.532;-1.478;2022-12-18T15:17:20;18.30;;;8.75;;
23146;SDS011;11742;53.532;-1.478;2022-12-18T15:19:48;17.88;;;8.88;;
23146;SDS011;11742;53.532;-1.478;2022-12-18T15:22:20;16.98;;;9.15;;
23146;SDS011;11742;53.532;-1.478;2022-12-18T15:24:51;17.48;;;8.95;;
23146;SDS011;11742;53.532;-1.478;2022-12-18T15:32:35;18.42;;;9.27;;
23146;SDS011;11742;53.532;-1.478;2022-12-18T15:35:13;15.32;;;8.23;;
23146;SDS011;11742;53.532;-1.478;2022-12-18T15:37:44;16.55;;;8.45;;
23146;SDS011;11742;53.532;-1.478;2022-12-18T15:40:17;16.90;;;8.82;;
23146;SDS011;11742;53.532;-1.478;2022-12-18T15:42:45;15.88;;;8.40;;
23146;SDS011;11742;53.532;-1.478;2022-12-18T15:45:30;17.60;;;8.90;;
23146;SDS011;11742;53.532;-1.478;2022-12-18T15:47:56;17.92;;;8.07;;
23146;SDS011;11742;53.532;-1.478;2022-12-18T15:50:22;15.30;;;7.95;;
23146;SDS011;11742;53.532;-1.478;2022-12-18T15:52:48;16.00;;;8.68;;
23146;SDS011;11742;53.532;-1.478;2022-12-18T15:55:20;16.27;;;8.32;;
23146;SDS011;11742;53.532;-1.478;2022-12-18T15:58:06;15.15;;;8.18;;
23146;SDS011;11742;53.532;-1.478;2022-12-18T16:00:34;14.65;;;7.50;;
23146;SDS011;11742;53.532;-1.478;2022-12-18T16:03:01;18.25;;;8.10;;
23146;SDS011;11742;53.532;-1.478;2022-12-18T16:05:28;16.15;;;7.90;;
23146;SDS011;11742;53.532;-1.478;2022-12-18T16:07:54;13.45;;;6.88;;
23146;SDS011;11742;53.532;-1.478;2022-12-18T16:10:19;15.13;;;8.60;;
23146;SDS011;11742;53.532;-1.478;2022-12-18T16:12:45;16.60;;;8.40;;
23146;SDS011;11742;53.532;-1.478;2022-12-18T16:15:14;15.15;;;7.20;;
23146;SDS011;11742;53.532;-1.478;2022-12-18T16:17:41;17.77;;;8.07;;
23146;SDS011;11742;53.532;-1.478;2022-12-18T16:20:15;16.08;;;7.80;;
23146;SDS011;11742;53.532;-1.478;2022-12-18T16:22:43;15.95;;;7.88;;
23146;SDS011;11742;53.532;-1.478;2022-12-18T16:25:21;14.75;;;7.07;;
23146;SDS011;11742;53.532;-1.478;2022-12-18T16:27:49;13.85;;;7.63;;
23146;SDS011;11742;53.532;-1.478;2022-12-18T16:30:16;14.82;;;7.50;;
23146;SDS011;11742;53.532;-1.478;2022-12-18T16:32:46;15.68;;;7.03;;
23146;SDS011;11742;53.532;-1.478;2022-12-18T16:35:12;12.93;;;6.90;;
23146;SDS011;11742;53.532;-1.478;2022-12-18T16:37:39;13.60;;;7.32;;